createdAt,value
2018-12-12T00:00:25.594Z,24.03
2018-12-12T00:08:46.947Z,24.50
2018-12-12T00:17:08.005Z,25.13
2018-12-12T00:25:29.062Z,28.50
2018-12-12T00:33:50.243Z,28.30
2018-12-12T00:42:11.299Z,27.23
2018-12-12T00:50:32.455Z,25.23
2018-12-12T00:58:53.623Z,22.83
2018-12-12T01:07:14.807Z,22.80
2018-12-12T01:15:35.887Z,22.80
2018-12-12T01:23:56.943Z,22.67
2018-12-12T01:32:17.992Z,23.23
2018-12-12T01:40:39.171Z,20.27
2018-12-12T01:49:00.234Z,20.80
2018-12-12T01:57:21.302Z,18.77
2018-12-12T02:05:42.367Z,19.17
2018-12-12T02:14:03.424Z,22.27
2018-12-12T02:22:24.483Z,17.70
2018-12-12T02:30:45.539Z,17.43
2018-12-12T02:39:06.650Z,17.27
2018-12-12T02:47:27.716Z,17.43
2018-12-12T02:55:48.888Z,19.00
2018-12-12T03:04:10.060Z,17.07
2018-12-12T03:12:31.114Z,18.13
2018-12-12T03:20:52.170Z,17.83
2018-12-12T03:29:13.227Z,18.10
2018-12-12T03:37:34.287Z,18.20
2018-12-12T03:45:55.258Z,16.57
2018-12-12T03:54:16.416Z,19.27
2018-12-12T04:02:37.472Z,15.70
2018-12-12T04:10:58.675Z,18.97
2018-12-12T04:19:19.860Z,21.93
2018-12-12T04:27:40.915Z,17.73
2018-12-12T04:36:01.972Z,20.33
2018-12-12T04:44:23.031Z,17.40
2018-12-12T04:52:44.091Z,17.43
2018-12-12T05:01:05.159Z,19.27
2018-12-12T05:09:26.235Z,20.37
2018-12-12T05:17:47.403Z,18.00
2018-12-12T05:26:08.523Z,17.77
2018-12-12T05:34:29.686Z,21.40
2018-12-12T05:42:51.819Z,25.60
2018-12-12T05:51:12.958Z,23.93
2018-12-12T05:59:34.019Z,21.10
2018-12-12T06:07:55.095Z,25.50
2018-12-12T06:16:16.267Z,21.77
2018-12-12T06:24:37.451Z,19.70
2018-12-12T06:32:58.583Z,20.53
2018-12-12T06:41:19.638Z,20.13
2018-12-12T06:49:40.826Z,28.53
2018-12-12T06:58:01.958Z,29.87
2018-12-12T07:06:23.011Z,31.10
2018-12-12T07:14:44.089Z,29.60
2018-12-12T07:23:05.247Z,34.97
2018-12-12T07:31:26.303Z,29.93
2018-12-12T07:39:47.353Z,31.33
2018-12-12T07:48:08.455Z,31.13
2018-12-12T07:56:29.507Z,29.83
2018-12-12T08:04:50.562Z,27.33
2018-12-12T08:13:11.619Z,32.43
2018-12-12T08:21:32.671Z,27.87
2018-12-12T08:29:53.851Z,32.23
2018-12-12T08:38:14.912Z,35.73
2018-12-12T08:46:35.971Z,33.53
2018-12-12T08:54:57.027Z,35.70
2018-12-12T09:03:18.079Z,31.27
2018-12-12T09:11:39.139Z,37.63
2018-12-12T09:20:00.198Z,42.77
2018-12-12T09:28:21.375Z,38.73
2018-12-12T09:36:42.511Z,40.03
2018-12-12T09:45:04.914Z,34.90
2018-12-12T09:53:26.254Z,37.53
2018-12-12T10:01:47.259Z,43.53
2018-12-12T10:10:08.323Z,42.60
2018-12-12T10:18:29.451Z,34.80
2018-12-12T10:26:51.511Z,32.23
2018-12-12T10:35:12.580Z,31.83
2018-12-12T10:43:33.720Z,30.57
2018-12-12T10:51:54.763Z,27.50
2018-12-12T11:00:17.868Z,26.73
2018-12-12T11:08:38.999Z,30.63
2018-12-12T11:17:00.068Z,30.33
2018-12-12T11:25:21.311Z,25.40
2018-12-12T11:33:42.375Z,24.50
2018-12-12T11:42:03.523Z,28.70
2018-12-12T11:50:24.718Z,24.10
2018-12-12T11:58:45.779Z,21.90
2018-12-12T12:07:06.850Z,26.73
2018-12-12T12:15:27.906Z,27.43
2018-12-12T12:23:48.959Z,26.23
2018-12-12T12:32:10.203Z,23.77
2018-12-12T12:40:31.355Z,22.77
2018-12-12T12:48:53.435Z,24.70
2018-12-12T12:57:14.580Z,21.53
2018-12-12T13:05:36.812Z,21.63
2018-12-12T13:13:57.898Z,20.47
2018-12-12T13:22:18.955Z,22.87
2018-12-12T13:30:40.104Z,17.50
2018-12-12T13:39:03.504Z,16.83
2018-12-12T13:47:25.908Z,18.40
2018-12-12T13:55:47.035Z,20.17
2018-12-12T14:04:08.139Z,20.30
2018-12-12T14:12:29.190Z,17.57
2018-12-12T14:20:50.279Z,19.00
2018-12-12T14:29:12.351Z,16.87
2018-12-12T14:37:33.411Z,19.70
2018-12-12T14:45:54.574Z,15.73
2018-12-12T14:54:15.674Z,17.53
2018-12-12T15:02:37.783Z,18.77
2018-12-12T15:10:58.950Z,18.47
2018-12-12T15:19:20.078Z,19.43
2018-12-12T15:27:42.243Z,18.33
2018-12-12T15:36:03.338Z,20.20
2018-12-12T15:44:24.504Z,17.37
2018-12-12T15:52:45.653Z,18.47
2018-12-12T16:01:06.672Z,19.30
2018-12-12T16:09:27.731Z,14.63
2018-12-12T16:17:48.799Z,14.97
2018-12-12T16:26:09.855Z,13.90
2018-12-12T16:34:30.912Z,11.10
2018-12-12T16:42:51.971Z,8.90
2018-12-12T16:51:13.135Z,8.70
2018-12-12T16:59:34.202Z,7.07
2018-12-12T17:07:55.330Z,9.47
2018-12-12T17:16:16.404Z,8.57
2018-12-12T17:24:37.575Z,11.57
2018-12-12T17:32:58.807Z,9.97
2018-12-12T17:41:19.864Z,6.73
2018-12-12T17:49:40.826Z,8.83
2018-12-12T17:58:01.882Z,31.37
2018-12-12T18:06:22.955Z,6.97
2018-12-12T18:14:45.042Z,17.80
2018-12-12T18:23:06.260Z,9.47
2018-12-12T18:31:27.315Z,10.10
2018-12-12T18:39:48.738Z,9.77
2018-12-12T18:48:09.899Z,8.33
2018-12-12T18:56:30.950Z,9.80
2018-12-12T19:04:52.011Z,11.33
2018-12-12T19:13:13.103Z,10.37
2018-12-12T19:21:34.212Z,11.03
2018-12-12T19:29:55.263Z,14.10
2018-12-12T19:38:16.319Z,8.97
2018-12-12T19:46:37.370Z,16.13
2018-12-12T19:54:58.426Z,12.97
2018-12-12T20:03:19.683Z,10.67
2018-12-12T20:11:40.766Z,11.70
2018-12-12T20:20:01.835Z,10.13
2018-12-12T20:28:22.950Z,13.87
2018-12-12T20:36:44.007Z,11.83
2018-12-12T20:45:05.059Z,13.63
2018-12-12T20:53:26.255Z,12.00
2018-12-12T21:01:47.351Z,11.20
2018-12-12T21:10:08.409Z,9.30
2018-12-12T21:18:29.539Z,11.10
2018-12-12T21:26:50.621Z,9.27
2018-12-12T21:35:12.808Z,11.23
2018-12-12T21:43:34.123Z,8.27
2018-12-12T21:51:55.307Z,8.97
2018-12-12T22:00:16.443Z,9.77
2018-12-12T22:08:37.502Z,10.30
2018-12-12T22:16:58.555Z,9.53
2018-12-12T22:25:19.608Z,9.67
2018-12-12T22:33:40.663Z,10.73
2018-12-12T22:42:01.747Z,10.93
2018-12-12T22:50:22.799Z,10.90
2018-12-12T22:58:43.859Z,11.70
2018-12-12T23:07:05.135Z,11.60
2018-12-12T23:15:26.195Z,12.20
2018-12-12T23:23:47.248Z,10.00
2018-12-12T23:32:08.411Z,11.60
2018-12-12T23:40:29.470Z,12.30
2018-12-12T23:48:51.663Z,12.53
2018-12-12T23:57:13.579Z,13.40
